sensor_id;sensor_type;location;lat;lon;timestamp;temperature;humidity
83685;DHT22;73666;51.304;5.776;2024-02-23T00:03:44;5.30;73.60
83685;DHT22;73666;51.304;5.776;2024-02-23T00:08:44;5.10;73.80
83685;DHT22;73666;51.304;5.776;2024-02-23T00:13:45;5.10;73.90
83685;DHT22;73666;51.304;5.776;2024-02-23T00:18:46;5.00;73.90
83685;DHT22;73666;51.304;5.776;2024-02-23T00:23:47;5.00;73.80
83685;DHT22;73666;51.304;5.776;2024-02-23T00:28:47;4.90;74.00
83685;DHT22;73666;51.304;5.776;2024-02-23T00:33:48;4.70;74.20
83685;DHT22;73666;51.304;5.776;2024-02-23T00:38:49;4.70;74.20
83685;DHT22;73666;51.304;5.776;2024-02-23T00:43:49;4.70;74.20
83685;DHT22;73666;51.304;5.776;2024-02-23T00:48:50;4.70;74.20
83685;DHT22;73666;51.304;5.776;2024-02-23T00:53:51;4.60;74.10
83685;DHT22;73666;51.304;5.776;2024-02-23T00:58:54;4.50;74.20
83685;DHT22;73666;51.304;5.776;2024-02-23T01:03:56;4.50;74.10
83685;DHT22;73666;51.304;5.776;2024-02-23T01:08:58;4.50;74.10
83685;DHT22;73666;51.304;5.776;2024-02-23T01:14:00;4.50;74.10
83685;DHT22;73666;51.304;5.776;2024-02-23T01:19:01;4.50;73.90
83685;DHT22;73666;51.304;5.776;2024-02-23T01:24:03;4.50;73.80
83685;DHT22;73666;51.304;5.776;2024-02-23T01:29:05;4.50;73.80
83685;DHT22;73666;51.304;5.776;2024-02-23T01:34:07;4.40;73.80
83685;DHT22;73666;51.304;5.776;2024-02-23T01:39:08;4.40;73.90
83685;DHT22;73666;51.304;5.776;2024-02-23T01:44:11;4.30;74.10
83685;DHT22;73666;51.304;5.776;2024-02-23T01:49:12;4.30;74.30
83685;DHT22;73666;51.304;5.776;2024-02-23T01:54:13;4.20;74.30
83685;DHT22;73666;51.304;5.776;2024-02-23T01:59:14;4.20;74.40
83685;DHT22;73666;51.304;5.776;2024-02-23T02:04:15;4.20;74.30
83685;DHT22;73666;51.304;5.776;2024-02-23T02:09:16;4.20;74.20
83685;DHT22;73666;51.304;5.776;2024-02-23T02:14:17;4.20;74.30
83685;DHT22;73666;51.304;5.776;2024-02-23T02:19:19;4.10;74.30
83685;DHT22;73666;51.304;5.776;2024-02-23T02:24:21;4.10;74.40
83685;DHT22;73666;51.304;5.776;2024-02-23T02:29:22;4.00;74.40
83685;DHT22;73666;51.304;5.776;2024-02-23T02:34:23;4.00;74.40
83685;DHT22;73666;51.304;5.776;2024-02-23T02:39:24;3.90;74.40
83685;DHT22;73666;51.304;5.776;2024-02-23T02:44:25;3.90;74.50
83685;DHT22;73666;51.304;5.776;2024-02-23T02:49:30;3.90;74.60
83685;DHT22;73666;51.304;5.776;2024-02-23T02:54:31;3.90;74.60
83685;DHT22;73666;51.304;5.776;2024-02-23T02:59:35;3.90;74.60
83685;DHT22;73666;51.304;5.776;2024-02-23T03:04:37;3.90;74.50
83685;DHT22;73666;51.304;5.776;2024-02-23T03:09:38;3.90;74.60
83685;DHT22;73666;51.304;5.776;2024-02-23T03:14:42;3.90;74.60
83685;DHT22;73666;51.304;5.776;2024-02-23T03:19:44;4.00;74.70
83685;DHT22;73666;51.304;5.776;2024-02-23T03:24:46;4.00;74.60
83685;DHT22;73666;51.304;5.776;2024-02-23T03:29:47;3.90;74.60
83685;DHT22;73666;51.304;5.776;2024-02-23T03:34:48;3.90;74.50
83685;DHT22;73666;51.304;5.776;2024-02-23T03:39:49;3.90;74.60
83685;DHT22;73666;51.304;5.776;2024-02-23T03:44:50;3.90;74.50
83685;DHT22;73666;51.304;5.776;2024-02-23T03:49:52;3.80;74.60
83685;DHT22;73666;51.304;5.776;2024-02-23T03:54:53;3.80;74.50
83685;DHT22;73666;51.304;5.776;2024-02-23T03:59:57;3.80;74.50
83685;DHT22;73666;51.304;5.776;2024-02-23T04:04:59;3.70;74.70
83685;DHT22;73666;51.304;5.776;2024-02-23T04:09:59;3.70;74.70
83685;DHT22;73666;51.304;5.776;2024-02-23T04:15:01;3.70;74.80
83685;DHT22;73666;51.304;5.776;2024-02-23T04:20:06;3.70;74.80
83685;DHT22;73666;51.304;5.776;2024-02-23T04:25:08;3.80;74.80
83685;DHT22;73666;51.304;5.776;2024-02-23T04:30:10;3.80;74.80
83685;DHT22;73666;51.304;5.776;2024-02-23T04:35:11;3.90;74.80
83685;DHT22;73666;51.304;5.776;2024-02-23T04:40:12;3.90;74.70
83685;DHT22;73666;51.304;5.776;2024-02-23T04:45:13;4.00;74.50
83685;DHT22;73666;51.304;5.776;2024-02-23T04:50:15;4.00;74.60
83685;DHT22;73666;51.304;5.776;2024-02-23T04:55:16;4.10;74.50
83685;DHT22;73666;51.304;5.776;2024-02-23T05:00:17;4.30;74.20
83685;DHT22;73666;51.304;5.776;2024-02-23T05:05:19;4.40;74.00
83685;DHT22;73666;51.304;5.776;2024-02-23T05:10:23;4.40;73.90
83685;DHT22;73666;51.304;5.776;2024-02-23T05:15:24;4.50;73.90
83685;DHT22;73666;51.304;5.776;2024-02-23T05:20:26;4.50;73.70
83685;DHT22;73666;51.304;5.776;2024-02-23T05:25:29;4.50;73.60
83685;DHT22;73666;51.304;5.776;2024-02-23T05:30:30;4.50;73.60
83685;DHT22;73666;51.304;5.776;2024-02-23T05:35:35;4.50;73.50
83685;DHT22;73666;51.304;5.776;2024-02-23T05:40:37;4.70;73.40
83685;DHT22;73666;51.304;5.776;2024-02-23T05:45:37;4.60;73.10
83685;DHT22;73666;51.304;5.776;2024-02-23T05:50:40;4.50;73.00
83685;DHT22;73666;51.304;5.776;2024-02-23T05:55:42;4.50;73.10
83685;DHT22;73666;51.304;5.776;2024-02-23T06:00:46;4.50;73.20
83685;DHT22;73666;51.304;5.776;2024-02-23T06:05:49;4.50;73.10
83685;DHT22;73666;51.304;5.776;2024-02-23T06:10:51;4.60;73.00
83685;DHT22;73666;51.304;5.776;2024-02-23T06:15:53;4.60;72.80
83685;DHT22;73666;51.304;5.776;2024-02-23T06:20:54;4.70;72.80
83685;DHT22;73666;51.304;5.776;2024-02-23T06:25:55;4.70;72.80
83685;DHT22;73666;51.304;5.776;2024-02-23T06:30:55;4.70;72.30
83685;DHT22;73666;51.304;5.776;2024-02-23T06:35:59;4.70;72.30
83685;DHT22;73666;51.304;5.776;2024-02-23T06:41:00;4.70;72.30
83685;DHT22;73666;51.304;5.776;2024-02-23T06:46:07;4.80;72.20
83685;DHT22;73666;51.304;5.776;2024-02-23T06:51:08;4.90;72.10
83685;DHT22;73666;51.304;5.776;2024-02-23T06:56:10;4.90;72.20
83685;DHT22;73666;51.304;5.776;2024-02-23T07:01:14;5.00;71.90
83685;DHT22;73666;51.304;5.776;2024-02-23T07:06:16;5.00;71.90
83685;DHT22;73666;51.304;5.776;2024-02-23T07:11:19;5.00;71.80
83685;DHT22;73666;51.304;5.776;2024-02-23T07:16:22;5.00;71.50
83685;DHT22;73666;51.304;5.776;2024-02-23T07:21:22;5.10;71.50
83685;DHT22;73666;51.304;5.776;2024-02-23T07:26:23;5.20;71.60
83685;DHT22;73666;51.304;5.776;2024-02-23T07:31:25;5.30;71.50
83685;DHT22;73666;51.304;5.776;2024-02-23T07:36:26;5.30;71.40
83685;DHT22;73666;51.304;5.776;2024-02-23T07:41:27;5.40;71.20
83685;DHT22;73666;51.304;5.776;2024-02-23T07:46:28;5.50;71.10
83685;DHT22;73666;51.304;5.776;2024-02-23T07:51:30;5.60;70.90
83685;DHT22;73666;51.304;5.776;2024-02-23T07:56:32;5.70;70.50
83685;DHT22;73666;51.304;5.776;2024-02-23T08:01:33;5.80;70.30
83685;DHT22;73666;51.304;5.776;2024-02-23T08:06:34;5.90;70.40
83685;DHT22;73666;51.304;5.776;2024-02-23T08:11:35;6.00;70.10
83685;DHT22;73666;51.304;5.776;2024-02-23T08:16:38;6.10;69.50
83685;DHT22;73666;51.304;5.776;2024-02-23T08:21:43;6.30;69.60
83685;DHT22;73666;51.304;5.776;2024-02-23T08:26:44;6.60;69.10
83685;DHT22;73666;51.304;5.776;2024-02-23T08:31:45;6.70;69.20
83685;DHT22;73666;51.304;5.776;2024-02-23T08:36:46;6.60;69.20
83685;DHT22;73666;51.304;5.776;2024-02-23T08:41:47;6.50;69.20
83685;DHT22;73666;51.304;5.776;2024-02-23T08:46:48;6.40;68.80
83685;DHT22;73666;51.304;5.776;2024-02-23T08:51:49;6.50;69.30
83685;DHT22;73666;51.304;5.776;2024-02-23T08:56:50;6.80;69.10
83685;DHT22;73666;51.304;5.776;2024-02-23T09:01:51;6.90;68.60
83685;DHT22;73666;51.304;5.776;2024-02-23T09:06:52;6.90;68.50
83685;DHT22;73666;51.304;5.776;2024-02-23T09:11:53;6.90;68.50
83685;DHT22;73666;51.304;5.776;2024-02-23T09:16:54;7.00;68.20
83685;DHT22;73666;51.304;5.776;2024-02-23T09:21:55;7.20;67.80
83685;DHT22;73666;51.304;5.776;2024-02-23T09:26:56;7.40;67.80
83685;DHT22;73666;51.304;5.776;2024-02-23T09:31:57;7.40;67.60
83685;DHT22;73666;51.304;5.776;2024-02-23T09:36:57;7.40;67.70
83685;DHT22;73666;51.304;5.776;2024-02-23T09:41:59;7.50;67.60
83685;DHT22;73666;51.304;5.776;2024-02-23T09:47:02;7.50;67.20
83685;DHT22;73666;51.304;5.776;2024-02-23T09:52:08;7.50;67.20
83685;DHT22;73666;51.304;5.776;2024-02-23T09:57:10;7.50;66.70
83685;DHT22;73666;51.304;5.776;2024-02-23T10:02:15;7.40;66.80
83685;DHT22;73666;51.304;5.776;2024-02-23T10:07:16;7.50;67.10
83685;DHT22;73666;51.304;5.776;2024-02-23T10:12:17;7.50;67.00
83685;DHT22;73666;51.304;5.776;2024-02-23T10:17:19;7.50;67.10
83685;DHT22;73666;51.304;5.776;2024-02-23T10:22:20;7.80;66.60
83685;DHT22;73666;51.304;5.776;2024-02-23T10:27:22;8.00;66.50
83685;DHT22;73666;51.304;5.776;2024-02-23T10:32:25;8.00;66.40
83685;DHT22;73666;51.304;5.776;2024-02-23T10:37:31;7.90;66.00
83685;DHT22;73666;51.304;5.776;2024-02-23T10:42:34;7.90;66.60
83685;DHT22;73666;51.304;5.776;2024-02-23T10:47:36;8.00;66.50
83685;DHT22;73666;51.304;5.776;2024-02-23T10:52:42;7.90;66.90
83685;DHT22;73666;51.304;5.776;2024-02-23T10:57:49;8.00;66.90
83685;DHT22;73666;51.304;5.776;2024-02-23T11:02:56;8.00;66.60
83685;DHT22;73666;51.304;5.776;2024-02-23T11:07:58;8.00;66.40
83685;DHT22;73666;51.304;5.776;2024-02-23T11:13:02;8.20;66.60
83685;DHT22;73666;51.304;5.776;2024-02-23T11:18:03;8.40;66.20
83685;DHT22;73666;51.304;5.776;2024-02-23T11:23:13;8.30;66.30
83685;DHT22;73666;51.304;5.776;2024-02-23T11:28:27;8.30;66.40
83685;DHT22;73666;51.304;5.776;2024-02-23T11:33:34;8.20;66.20
83685;DHT22;73666;51.304;5.776;2024-02-23T11:38:41;8.20;66.20
83685;DHT22;73666;51.304;5.776;2024-02-23T11:43:42;8.10;66.50
83685;DHT22;73666;51.304;5.776;2024-02-23T11:48:45;8.00;66.70
83685;DHT22;73666;51.304;5.776;2024-02-23T11:53:47;8.00;66.90
83685;DHT22;73666;51.304;5.776;2024-02-23T11:58:49;8.00;66.70
83685;DHT22;73666;51.304;5.776;2024-02-23T12:03:50;8.10;66.70
83685;DHT22;73666;51.304;5.776;2024-02-23T12:08:51;8.20;66.20
83685;DHT22;73666;51.304;5.776;2024-02-23T12:13:52;8.20;66.20
83685;DHT22;73666;51.304;5.776;2024-02-23T12:18:54;8.20;66.20
83685;DHT22;73666;51.304;5.776;2024-02-23T12:23:56;8.20;66.00
83685;DHT22;73666;51.304;5.776;2024-02-23T12:29:01;8.20;66.30
83685;DHT22;73666;51.304;5.776;2024-02-23T12:34:03;8.10;66.10
83685;DHT22;73666;51.304;5.776;2024-02-23T12:39:03;8.00;66.10
83685;DHT22;73666;51.304;5.776;2024-02-23T12:44:04;8.00;66.40
83685;DHT22;73666;51.304;5.776;2024-02-23T12:49:05;8.10;66.70
83685;DHT22;73666;51.304;5.776;2024-02-23T12:54:06;8.20;66.70
83685;DHT22;73666;51.304;5.776;2024-02-23T12:59:07;8.40;66.30
83685;DHT22;73666;51.304;5.776;2024-02-23T13:04:10;8.50;65.60
83685;DHT22;73666;51.304;5.776;2024-02-23T13:09:11;8.60;65.30
83685;DHT22;73666;51.304;5.776;2024-02-23T13:14:13;8.50;65.80
83685;DHT22;73666;51.304;5.776;2024-02-23T13:19:14;8.50;65.50
83685;DHT22;73666;51.304;5.776;2024-02-23T13:24:15;8.40;65.60
83685;DHT22;73666;51.304;5.776;2024-02-23T13:29:16;8.50;65.60
83685;DHT22;73666;51.304;5.776;2024-02-23T13:34:17;8.60;65.70
83685;DHT22;73666;51.304;5.776;2024-02-23T13:39:18;8.70;65.40
83685;DHT22;73666;51.304;5.776;2024-02-23T13:44:19;8.80;65.20
83685;DHT22;73666;51.304;5.776;2024-02-23T13:49:20;8.90;65.10
83685;DHT22;73666;51.304;5.776;2024-02-23T13:54:21;9.00;65.10
83685;DHT22;73666;51.304;5.776;2024-02-23T13:59:22;9.00;65.00
83685;DHT22;73666;51.304;5.776;2024-02-23T14:04:23;8.90;64.80
83685;DHT22;73666;51.304;5.776;2024-02-23T14:09:24;8.80;64.80
83685;DHT22;73666;51.304;5.776;2024-02-23T14:14:27;8.80;65.30
83685;DHT22;73666;51.304;5.776;2024-02-23T14:19:28;8.70;65.30
83685;DHT22;73666;51.304;5.776;2024-02-23T14:24:29;8.60;65.00
83685;DHT22;73666;51.304;5.776;2024-02-23T14:29:30;8.60;65.40
83685;DHT22;73666;51.304;5.776;2024-02-23T14:34:31;8.80;65.00
83685;DHT22;73666;51.304;5.776;2024-02-23T14:39:33;8.80;65.20
83685;DHT22;73666;51.304;5.776;2024-02-23T14:44:35;8.80;64.80
83685;DHT22;73666;51.304;5.776;2024-02-23T14:49:36;8.80;64.50
83685;DHT22;73666;51.304;5.776;2024-02-23T14:54:37;8.80;64.40
83685;DHT22;73666;51.304;5.776;2024-02-23T14:59:38;8.90;64.60
83685;DHT22;73666;51.304;5.776;2024-02-23T15:04:46;8.90;64.80
83685;DHT22;73666;51.304;5.776;2024-02-23T15:09:47;8.80;65.00
83685;DHT22;73666;51.304;5.776;2024-02-23T15:14:48;8.70;65.20
83685;DHT22;73666;51.304;5.776;2024-02-23T15:19:49;8.80;65.20
83685;DHT22;73666;51.304;5.776;2024-02-23T15:24:50;8.80;64.80
83685;DHT22;73666;51.304;5.776;2024-02-23T15:29:51;8.80;64.50
83685;DHT22;73666;51.304;5.776;2024-02-23T15:34:51;8.80;64.30
83685;DHT22;73666;51.304;5.776;2024-02-23T15:39:52;8.80;64.00
83685;DHT22;73666;51.304;5.776;2024-02-23T15:44:53;8.80;63.80
83685;DHT22;73666;51.304;5.776;2024-02-23T15:49:55;8.80;63.90
83685;DHT22;73666;51.304;5.776;2024-02-23T15:54:55;8.70;63.70
83685;DHT22;73666;51.304;5.776;2024-02-23T15:59:56;8.90;63.80
83685;DHT22;73666;51.304;5.776;2024-02-23T16:04:57;9.00;63.60
83685;DHT22;73666;51.304;5.776;2024-02-23T16:10:01;9.00;63.70
83685;DHT22;73666;51.304;5.776;2024-02-23T16:15:03;8.90;63.60
83685;DHT22;73666;51.304;5.776;2024-02-23T16:20:04;8.90;63.70
83685;DHT22;73666;51.304;5.776;2024-02-23T16:25:05;8.70;64.00
83685;DHT22;73666;51.304;5.776;2024-02-23T16:30:07;8.60;64.30
83685;DHT22;73666;51.304;5.776;2024-02-23T16:35:09;8.50;64.20
83685;DHT22;73666;51.304;5.776;2024-02-23T16:40:20;8.30;64.20
83685;DHT22;73666;51.304;5.776;2024-02-23T16:45:23;8.20;64.70
83685;DHT22;73666;51.304;5.776;2024-02-23T16:50:25;8.00;65.00
83685;DHT22;73666;51.304;5.776;2024-02-23T16:55:25;7.80;65.10
83685;DHT22;73666;51.304;5.776;2024-02-23T17:00:26;7.50;65.50
83685;DHT22;73666;51.304;5.776;2024-02-23T17:05:27;7.40;65.90
83685;DHT22;73666;51.304;5.776;2024-02-23T17:10:29;7.20;66.10
83685;DHT22;73666;51.304;5.776;2024-02-23T17:15:31;7.10;66.40
83685;DHT22;73666;51.304;5.776;2024-02-23T17:20:32;7.00;66.40
83685;DHT22;73666;51.304;5.776;2024-02-23T17:25:32;6.90;66.60
83685;DHT22;73666;51.304;5.776;2024-02-23T17:30:33;6.70;66.90
83685;DHT22;73666;51.304;5.776;2024-02-23T17:35:34;6.60;67.20
83685;DHT22;73666;51.304;5.776;2024-02-23T17:40:34;6.50;67.30
83685;DHT22;73666;51.304;5.776;2024-02-23T17:45:35;6.40;67.60
83685;DHT22;73666;51.304;5.776;2024-02-23T17:50:37;6.30;67.70
83685;DHT22;73666;51.304;5.776;2024-02-23T17:55:38;6.30;67.90
83685;DHT22;73666;51.304;5.776;2024-02-23T18:00:38;6.20;68.10
83685;DHT22;73666;51.304;5.776;2024-02-23T18:05:39;6.20;68.20
83685;DHT22;73666;51.304;5.776;2024-02-23T18:10:40;6.20;68.30
83685;DHT22;73666;51.304;5.776;2024-02-23T18:15:41;6.30;68.40
83685;DHT22;73666;51.304;5.776;2024-02-23T18:20:43;6.30;68.40
83685;DHT22;73666;51.304;5.776;2024-02-23T18:25:44;6.40;68.40
83685;DHT22;73666;51.304;5.776;2024-02-23T18:30:45;6.50;68.40
83685;DHT22;73666;51.304;5.776;2024-02-23T18:35:46;6.60;68.40
83685;DHT22;73666;51.304;5.776;2024-02-23T18:40:46;6.70;68.40
83685;DHT22;73666;51.304;5.776;2024-02-23T18:45:48;6.70;68.40
83685;DHT22;73666;51.304;5.776;2024-02-23T18:50:51;6.80;68.40
83685;DHT22;73666;51.304;5.776;2024-02-23T18:55:51;6.80;68.40
83685;DHT22;73666;51.304;5.776;2024-02-23T19:00:53;6.80;68.60
83685;DHT22;73666;51.304;5.776;2024-02-23T19:06:03;6.80;68.70
83685;DHT22;73666;51.304;5.776;2024-02-23T19:11:04;6.80;68.70
83685;DHT22;73666;51.304;5.776;2024-02-23T19:16:12;6.70;68.90
83685;DHT22;73666;51.304;5.776;2024-02-23T19:21:13;6.70;69.00
83685;DHT22;73666;51.304;5.776;2024-02-23T19:26:16;6.60;69.20
83685;DHT22;73666;51.304;5.776;2024-02-23T19:31:17;6.50;69.40
83685;DHT22;73666;51.304;5.776;2024-02-23T19:36:18;6.50;69.50
83685;DHT22;73666;51.304;5.776;2024-02-23T19:41:18;6.40;69.60
83685;DHT22;73666;51.304;5.776;2024-02-23T19:46:19;6.40;69.70
83685;DHT22;73666;51.304;5.776;2024-02-23T19:51:23;6.30;69.80
83685;DHT22;73666;51.304;5.776;2024-02-23T19:56:24;6.30;69.80
83685;DHT22;73666;51.304;5.776;2024-02-23T20:01:25;6.30;69.90
83685;DHT22;73666;51.304;5.776;2024-02-23T20:06:27;6.30;70.00
83685;DHT22;73666;51.304;5.776;2024-02-23T20:11:28;6.20;70.20
83685;DHT22;73666;51.304;5.776;2024-02-23T20:16:29;6.20;70.30
83685;DHT22;73666;51.304;5.776;2024-02-23T20:21:30;6.10;70.30
83685;DHT22;73666;51.304;5.776;2024-02-23T20:26:33;6.10;70.30
83685;DHT22;73666;51.304;5.776;2024-02-23T20:31:34;5.90;70.40
83685;DHT22;73666;51.304;5.776;2024-02-23T20:36:39;5.80;70.70
83685;DHT22;73666;51.304;5.776;2024-02-23T20:41:39;5.70;70.80
83685;DHT22;73666;51.304;5.776;2024-02-23T20:46:40;5.60;71.00
83685;DHT22;73666;51.304;5.776;2024-02-23T20:51:41;5.60;71.10
83685;DHT22;73666;51.304;5.776;2024-02-23T20:56:44;5.50;71.20
83685;DHT22;73666;51.304;5.776;2024-02-23T21:01:46;5.50;71.40
83685;DHT22;73666;51.304;5.776;2024-02-23T21:06:47;5.50;71.50
83685;DHT22;73666;51.304;5.776;2024-02-23T21:11:48;5.40;71.60
83685;DHT22;73666;51.304;5.776;2024-02-23T21:16:49;5.40;71.70
83685;DHT22;73666;51.304;5.776;2024-02-23T21:21:50;5.40;71.70
83685;DHT22;73666;51.304;5.776;2024-02-23T21:26:50;5.40;71.70
83685;DHT22;73666;51.304;5.776;2024-02-23T21:31:53;5.40;71.80
83685;DHT22;73666;51.304;5.776;2024-02-23T21:36:55;5.50;71.80
83685;DHT22;73666;51.304;5.776;2024-02-23T21:41:56;5.60;71.80
83685;DHT22;73666;51.304;5.776;2024-02-23T21:46:57;5.60;71.70
83685;DHT22;73666;51.304;5.776;2024-02-23T21:51:57;5.60;71.60
83685;DHT22;73666;51.304;5.776;2024-02-23T21:57:03;5.50;71.70
83685;DHT22;73666;51.304;5.776;2024-02-23T22:02:05;5.30;71.80
83685;DHT22;73666;51.304;5.776;2024-02-23T22:07:06;5.10;72.00
83685;DHT22;73666;51.304;5.776;2024-02-23T22:12:08;5.00;72.20
83685;DHT22;73666;51.304;5.776;2024-02-23T22:17:08;4.90;72.40
83685;DHT22;73666;51.304;5.776;2024-02-23T22:22:10;4.80;72.50
83685;DHT22;73666;51.304;5.776;2024-02-23T22:27:10;4.70;72.60
83685;DHT22;73666;51.304;5.776;2024-02-23T22:32:12;4.70;72.70
83685;DHT22;73666;51.304;5.776;2024-02-23T22:37:14;4.60;72.70
83685;DHT22;73666;51.304;5.776;2024-02-23T22:42:15;4.60;72.80
83685;DHT22;73666;51.304;5.776;2024-02-23T22:47:15;4.60;72.80
83685;DHT22;73666;51.304;5.776;2024-02-23T22:52:17;4.60;72.90
83685;DHT22;73666;51.304;5.776;2024-02-23T22:57:18;4.70;72.90
83685;DHT22;73666;51.304;5.776;2024-02-23T23:02:21;4.70;72.90
83685;DHT22;73666;51.304;5.776;2024-02-23T23:07:23;4.70;73.00
83685;DHT22;73666;51.304;5.776;2024-02-23T23:12:25;4.70;73.00
83685;DHT22;73666;51.304;5.776;2024-02-23T23:17:27;4.80;73.00
83685;DHT22;73666;51.304;5.776;2024-02-23T23:22:28;4.80;73.10
83685;DHT22;73666;51.304;5.776;2024-02-23T23:27:31;4.80;73.10
83685;DHT22;73666;51.304;5.776;2024-02-23T23:32:31;4.90;73.10
83685;DHT22;73666;51.304;5.776;2024-02-23T23:37:33;4.90;73.20
83685;DHT22;73666;51.304;5.776;2024-02-23T23:42:34;4.80;73.30
83685;DHT22;73666;51.304;5.776;2024-02-23T23:47:35;4.80;73.30
83685;DHT22;73666;51.304;5.776;2024-02-23T23:52:36;4.90;73.30
83685;DHT22;73666;51.304;5.776;2024-02-23T23:57:37;4.80;73.30
